sensor_id;sensor_type;location;lat;lon;timestamp;pressure;altitude;pressure_sealevel;temperature;humidity
46045;BME280;31781;54.094;13.428;2023-04-07T00:01:23;102304.03;;;4.23;62.35
46045;BME280;31781;54.094;13.428;2023-04-07T00:03:25;102303.31;;;4.21;62.55
46045;BME280;31781;54.094;13.428;2023-04-07T00:05:27;102307.09;;;4.18;62.28
46045;BME280;31781;54.094;13.428;2023-04-07T00:07:28;102303.56;;;4.18;61.99
46045;BME280;31781;54.094;13.428;2023-04-07T00:09:30;102295.63;;;4.16;61.98
46045;BME280;31781;54.094;13.428;2023-04-07T00:11:32;102293.06;;;4.15;62.53
46045;BME280;31781;54.094;13.428;2023-04-07T00:13:34;102297.56;;;4.14;61.87
46045;BME280;31781;54.094;13.428;2023-04-07T00:15:37;102296.75;;;4.14;62.31
46045;BME280;31781;54.094;13.428;2023-04-07T00:17:38;102291.38;;;4.14;62.30
46045;BME280;31781;54.094;13.428;2023-04-07T00:19:40;102298.59;;;4.13;62.12
46045;BME280;31781;54.094;13.428;2023-04-07T00:21:43;102295.03;;;4.13;61.83
46045;BME280;31781;54.094;13.428;2023-04-07T00:23:45;102296.88;;;4.12;61.55
46045;BME280;31781;54.094;13.428;2023-04-07T00:25:47;102294.19;;;4.12;61.98
46045;BME280;31781;54.094;13.428;2023-04-07T00:27:48;102298.81;;;4.10;62.10
46045;BME280;31781;54.094;13.428;2023-04-07T00:29:50;102290.72;;;4.10;61.83
46045;BME280;31781;54.094;13.428;2023-04-07T00:31:53;102286.34;;;4.09;61.78
46045;BME280;31781;54.094;13.428;2023-04-07T00:33:55;102281.09;;;4.08;61.28
46045;BME280;31781;54.094;13.428;2023-04-07T00:35:58;102284.75;;;4.07;61.05
46045;BME280;31781;54.094;13.428;2023-04-07T00:38:00;102289.31;;;4.06;61.54
46045;BME280;31781;54.094;13.428;2023-04-07T00:40:02;102279.63;;;4.04;60.87
46045;BME280;31781;54.094;13.428;2023-04-07T00:42:04;102281.47;;;4.03;61.16
46045;BME280;31781;54.094;13.428;2023-04-07T00:44:06;102284.31;;;4.02;61.56
46045;BME280;31781;54.094;13.428;2023-04-07T00:46:08;102286.16;;;4.01;61.63
46045;BME280;31781;54.094;13.428;2023-04-07T00:48:11;102281.72;;;4.00;61.59
46045;BME280;31781;54.094;13.428;2023-04-07T00:50:13;102283.56;;;4.00;61.76
46045;BME280;31781;54.094;13.428;2023-04-07T00:52:15;102279.19;;;3.99;60.99
46045;BME280;31781;54.094;13.428;2023-04-07T00:54:17;102281.13;;;3.97;61.08
46045;BME280;31781;54.094;13.428;2023-04-07T00:56:19;102278.59;;;3.95;61.39
46045;BME280;31781;54.094;13.428;2023-04-07T00:58:21;102276.88;;;3.94;60.82
46045;BME280;31781;54.094;13.428;2023-04-07T01:00:23;102274.28;;;3.92;60.89
46045;BME280;31781;54.094;13.428;2023-04-07T01:02:31;102272.59;;;3.91;60.12
46045;BME280;31781;54.094;13.428;2023-04-07T01:04:43;102275.41;;;3.90;60.12
46045;BME280;31781;54.094;13.428;2023-04-07T01:06:50;102273.84;;;3.87;61.21
46045;BME280;31781;54.094;13.428;2023-04-07T01:08:56;102276.66;;;3.86;60.36
46045;BME280;31781;54.094;13.428;2023-04-07T01:11:07;102274.06;;;3.84;60.64
46045;BME280;31781;54.094;13.428;2023-04-07T01:13:22;102276.91;;;3.83;60.02
46045;BME280;31781;54.094;13.428;2023-04-07T01:15:26;102279.88;;;3.80;61.07
46045;BME280;31781;54.094;13.428;2023-04-07T01:17:32;102273.75;;;3.78;61.80
46045;BME280;31781;54.094;13.428;2023-04-07T01:19:39;102274.75;;;3.77;61.64
46045;BME280;31781;54.094;13.428;2023-04-07T01:21:45;102278.41;;;3.76;61.31
46045;BME280;31781;54.094;13.428;2023-04-07T01:24:11;102273.03;;;3.76;59.63
46045;BME280;31781;54.094;13.428;2023-04-07T01:26:23;102272.44;;;3.72;61.76
46045;BME280;31781;54.094;13.428;2023-04-07T01:28:43;102275.25;;;3.71;60.96
46045;BME280;31781;54.094;13.428;2023-04-07T01:30:53;102264.63;;;3.69;61.68
46045;BME280;31781;54.094;13.428;2023-04-07T01:32:58;102278.19;;;3.68;62.66
46045;BME280;31781;54.094;13.428;2023-04-07T01:35:01;102266.72;;;3.66;62.62
46045;BME280;31781;54.094;13.428;2023-04-07T01:37:06;102273.06;;;3.65;63.04
46045;BME280;31781;54.094;13.428;2023-04-07T01:39:09;102275.00;;;3.63;63.03
46045;BME280;31781;54.094;13.428;2023-04-07T01:41:13;102267.94;;;3.62;62.30
46045;BME280;31781;54.094;13.428;2023-04-07T01:43:17;102269.78;;;3.61;63.03
46045;BME280;31781;54.094;13.428;2023-04-07T01:45:19;102269.03;;;3.59;63.15
46045;BME280;31781;54.094;13.428;2023-04-07T01:47:23;102259.28;;;3.58;63.39
46045;BME280;31781;54.094;13.428;2023-04-07T01:49:25;102259.38;;;3.57;63.40
46045;BME280;31781;54.094;13.428;2023-04-07T01:51:29;102263.91;;;3.56;63.56
46045;BME280;31781;54.094;13.428;2023-04-07T01:53:32;102258.66;;;3.55;63.77
46045;BME280;31781;54.094;13.428;2023-04-07T01:55:34;102257.81;;;3.54;63.64
46045;BME280;31781;54.094;13.428;2023-04-07T01:57:36;102257.94;;;3.53;63.01
46045;BME280;31781;54.094;13.428;2023-04-07T01:59:38;102265.13;;;3.52;63.34
46045;BME280;31781;54.094;13.428;2023-04-07T02:01:40;102266.09;;;3.51;63.95
46045;BME280;31781;54.094;13.428;2023-04-07T02:03:48;102261.59;;;3.52;63.12
46045;BME280;31781;54.094;13.428;2023-04-07T02:05:54;102261.72;;;3.50;63.52
46045;BME280;31781;54.094;13.428;2023-04-07T02:08:01;102266.38;;;3.48;63.31
46045;BME280;31781;54.094;13.428;2023-04-07T02:10:06;102264.69;;;3.47;63.69
46045;BME280;31781;54.094;13.428;2023-04-07T02:12:10;102266.50;;;3.47;63.67
46045;BME280;31781;54.094;13.428;2023-04-07T02:14:13;102264.78;;;3.46;64.03
46045;BME280;31781;54.094;13.428;2023-04-07T02:16:16;102264.09;;;3.43;64.27
46045;BME280;31781;54.094;13.428;2023-04-07T02:18:19;102266.78;;;3.43;64.24
46045;BME280;31781;54.094;13.428;2023-04-07T02:20:22;102259.53;;;3.44;64.40
46045;BME280;31781;54.094;13.428;2023-04-07T02:22:25;102267.75;;;3.42;64.54
46045;BME280;31781;54.094;13.428;2023-04-07T02:24:27;102269.56;;;3.42;64.17
46045;BME280;31781;54.094;13.428;2023-04-07T02:26:32;102263.34;;;3.41;64.30
46045;BME280;31781;54.094;13.428;2023-04-07T02:28:35;102262.47;;;3.41;64.16
46045;BME280;31781;54.094;13.428;2023-04-07T02:30:37;102267.00;;;3.40;64.39
46045;BME280;31781;54.094;13.428;2023-04-07T02:32:39;102260.03;;;3.38;64.84
46045;BME280;31781;54.094;13.428;2023-04-07T02:34:40;102261.88;;;3.37;64.92
46045;BME280;31781;54.094;13.428;2023-04-07T02:36:44;102266.28;;;3.38;64.47
46045;BME280;31781;54.094;13.428;2023-04-07T02:38:46;102268.13;;;3.38;64.73
46045;BME280;31781;54.094;13.428;2023-04-07T02:40:48;102269.09;;;3.37;64.90
46045;BME280;31781;54.094;13.428;2023-04-07T02:42:49;102264.56;;;3.37;65.07
46045;BME280;31781;54.094;13.428;2023-04-07T02:44:52;102264.56;;;3.37;64.87
46045;BME280;31781;54.094;13.428;2023-04-07T02:46:54;102262.84;;;3.36;64.92
46045;BME280;31781;54.094;13.428;2023-04-07T02:48:55;102269.94;;;3.37;65.50
46045;BME280;31781;54.094;13.428;2023-04-07T02:50:57;102268.22;;;3.36;64.97
46045;BME280;31781;54.094;13.428;2023-04-07T02:53:00;102265.53;;;3.36;65.52
46045;BME280;31781;54.094;13.428;2023-04-07T02:55:03;102265.53;;;3.36;65.75
46045;BME280;31781;54.094;13.428;2023-04-07T02:57:05;102262.84;;;3.36;65.88
46045;BME280;31781;54.094;13.428;2023-04-07T02:59:06;102262.03;;;3.36;65.58
46045;BME280;31781;54.094;13.428;2023-04-07T03:01:08;102266.53;;;3.35;65.29
46045;BME280;31781;54.094;13.428;2023-04-07T03:03:10;102259.34;;;3.36;65.55
46045;BME280;31781;54.094;13.428;2023-04-07T03:05:12;102265.69;;;3.35;65.71
46045;BME280;31781;54.094;13.428;2023-04-07T03:07:13;102256.75;;;3.34;65.50
46045;BME280;31781;54.094;13.428;2023-04-07T03:09:16;102249.66;;;3.33;65.21
46045;BME280;31781;54.094;13.428;2023-04-07T03:11:18;102247.81;;;3.34;65.54
46045;BME280;31781;54.094;13.428;2023-04-07T03:13:20;102254.16;;;3.33;65.44
46045;BME280;31781;54.094;13.428;2023-04-07T03:15:22;102252.34;;;3.33;65.85
46045;BME280;31781;54.094;13.428;2023-04-07T03:17:24;102246.25;;;3.31;65.65
46045;BME280;31781;54.094;13.428;2023-04-07T03:19:27;102247.97;;;3.32;65.88
46045;BME280;31781;54.094;13.428;2023-04-07T03:21:29;102255.19;;;3.32;65.33
46045;BME280;31781;54.094;13.428;2023-04-07T03:23:30;102257.88;;;3.32;65.26
46045;BME280;31781;54.094;13.428;2023-04-07T03:25:33;102253.47;;;3.31;65.65
46045;BME280;31781;54.094;13.428;2023-04-07T03:27:35;102248.06;;;3.31;65.89
46045;BME280;31781;54.094;13.428;2023-04-07T03:29:36;102244.53;;;3.30;66.18
46045;BME280;31781;54.094;13.428;2023-04-07T03:31:38;102243.66;;;3.30;66.09
46045;BME280;31781;54.094;13.428;2023-04-07T03:33:40;102249.06;;;3.30;66.35
46045;BME280;31781;54.094;13.428;2023-04-07T03:35:42;102243.66;;;3.30;65.47
46045;BME280;31781;54.094;13.428;2023-04-07T03:37:44;102249.06;;;3.30;65.64
46045;BME280;31781;54.094;13.428;2023-04-07T03:39:46;102249.91;;;3.30;65.91
46045;BME280;31781;54.094;13.428;2023-04-07T03:41:49;102245.38;;;3.31;65.73
46045;BME280;31781;54.094;13.428;2023-04-07T03:43:51;102247.22;;;3.30;65.77
46045;BME280;31781;54.094;13.428;2023-04-07T03:45:53;102247.22;;;3.30;65.77
46045;BME280;31781;54.094;13.428;2023-04-07T03:47:55;102246.34;;;3.30;65.66
46045;BME280;31781;54.094;13.428;2023-04-07T03:49:57;102253.47;;;3.31;66.16
46045;BME280;31781;54.094;13.428;2023-04-07T03:51:59;102249.91;;;3.30;65.78
46045;BME280;31781;54.094;13.428;2023-04-07T03:54:00;102245.50;;;3.29;65.70
46045;BME280;31781;54.094;13.428;2023-04-07T03:56:03;102248.19;;;3.29;65.94
46045;BME280;31781;54.094;13.428;2023-04-07T03:58:06;102252.59;;;3.30;65.76
46045;BME280;31781;54.094;13.428;2023-04-07T04:00:09;102246.34;;;3.30;65.52
46045;BME280;31781;54.094;13.428;2023-04-07T04:02:11;102242.81;;;3.29;65.64
46045;BME280;31781;54.094;13.428;2023-04-07T04:04:13;102245.50;;;3.29;65.81
46045;BME280;31781;54.094;13.428;2023-04-07T04:06:15;102246.34;;;3.30;65.50
46045;BME280;31781;54.094;13.428;2023-04-07T04:08:19;102243.81;;;3.28;65.33
46045;BME280;31781;54.094;13.428;2023-04-07T04:10:21;102247.47;;;3.27;65.54
46045;BME280;31781;54.094;13.428;2023-04-07T04:12:22;102246.50;;;3.28;66.01
46045;BME280;31781;54.094;13.428;2023-04-07T04:14:26;102252.84;;;3.27;65.96
46045;BME280;31781;54.094;13.428;2023-04-07T04:16:28;102240.38;;;3.26;65.94
46045;BME280;31781;54.094;13.428;2023-04-07T04:18:30;102246.63;;;3.27;65.36
46045;BME280;31781;54.094;13.428;2023-04-07T04:20:32;102247.59;;;3.26;65.73
46045;BME280;31781;54.094;13.428;2023-04-07T04:22:34;102254.78;;;3.25;65.92
46045;BME280;31781;54.094;13.428;2023-04-07T04:24:36;102256.50;;;3.26;65.62
46045;BME280;31781;54.094;13.428;2023-04-07T04:26:38;102252.09;;;3.25;65.58
46045;BME280;31781;54.094;13.428;2023-04-07T04:28:40;102251.13;;;3.26;65.34
46045;BME280;31781;54.094;13.428;2023-04-07T04:30:43;102251.13;;;3.26;65.90
46045;BME280;31781;54.094;13.428;2023-04-07T04:32:45;102254.69;;;3.27;66.21
46045;BME280;31781;54.094;13.428;2023-04-07T04:34:47;102256.41;;;3.28;65.84
46045;BME280;31781;54.094;13.428;2023-04-07T04:36:49;102263.47;;;3.29;66.56
46045;BME280;31781;54.094;13.428;2023-04-07T04:38:51;102258.94;;;3.29;66.50
46045;BME280;31781;54.094;13.428;2023-04-07T04:40:53;102259.81;;;3.30;66.13
46045;BME280;31781;54.094;13.428;2023-04-07T04:42:55;102256.16;;;3.31;65.91
46045;BME280;31781;54.094;13.428;2023-04-07T04:44:56;102257.88;;;3.32;66.47
46045;BME280;31781;54.094;13.428;2023-04-07T04:46:59;102256.88;;;3.33;66.51
46045;BME280;31781;54.094;13.428;2023-04-07T04:49:01;102255.88;;;3.34;65.80
46045;BME280;31781;54.094;13.428;2023-04-07T04:51:03;102260.16;;;3.36;66.52
46045;BME280;31781;54.094;13.428;2023-04-07T04:53:05;102251.13;;;3.37;66.03
46045;BME280;31781;54.094;13.428;2023-04-07T04:55:08;102256.50;;;3.37;66.64
46045;BME280;31781;54.094;13.428;2023-04-07T04:57:11;102264.44;;;3.39;66.11
46045;BME280;31781;54.094;13.428;2023-04-07T04:59:13;102258.06;;;3.40;66.14
46045;BME280;31781;54.094;13.428;2023-04-07T05:01:15;102252.56;;;3.41;66.21
46045;BME280;31781;54.094;13.428;2023-04-07T05:03:18;102261.38;;;3.43;66.27
46045;BME280;31781;54.094;13.428;2023-04-07T05:05:21;102256.72;;;3.46;66.74
46045;BME280;31781;54.094;13.428;2023-04-07T05:07:23;102252.06;;;3.48;66.97
46045;BME280;31781;54.094;13.428;2023-04-07T05:09:24;102263.69;;;3.48;66.58
46045;BME280;31781;54.094;13.428;2023-04-07T05:11:26;102254.53;;;3.51;67.13
46045;BME280;31781;54.094;13.428;2023-04-07T05:13:28;102259.66;;;3.54;67.07
46045;BME280;31781;54.094;13.428;2023-04-07T05:15:30;102255.84;;;3.56;67.00
46045;BME280;31781;54.094;13.428;2023-04-07T05:17:31;102260.97;;;3.59;66.97
46045;BME280;31781;54.094;13.428;2023-04-07T05:19:34;102255.19;;;3.64;67.23
46045;BME280;31781;54.094;13.428;2023-04-07T05:21:36;102258.63;;;3.66;67.05
46045;BME280;31781;54.094;13.428;2023-04-07T05:23:39;102266.56;;;3.67;66.94
46045;BME280;31781;54.094;13.428;2023-04-07T05:25:42;102268.13;;;3.70;66.73
46045;BME280;31781;54.094;13.428;2023-04-07T05:27:43;102266.19;;;3.72;66.71
46045;BME280;31781;54.094;13.428;2023-04-07T05:29:45;102265.06;;;3.74;67.00
46045;BME280;31781;54.094;13.428;2023-04-07T05:31:47;102264.94;;;3.76;66.78
46045;BME280;31781;54.094;13.428;2023-04-07T05:33:48;102265.66;;;3.78;66.73
46045;BME280;31781;54.094;13.428;2023-04-07T05:35:52;102270.06;;;3.79;67.08
46045;BME280;31781;54.094;13.428;2023-04-07T05:37:53;102272.66;;;3.80;66.71
46045;BME280;31781;54.094;13.428;2023-04-07T05:39:55;102273.38;;;3.82;66.91
46045;BME280;31781;54.094;13.428;2023-04-07T05:41:57;102273.25;;;3.84;67.06
46045;BME280;31781;54.094;13.428;2023-04-07T05:43:59;102270.28;;;3.87;67.36
46045;BME280;31781;54.094;13.428;2023-04-07T05:46:01;102264.75;;;3.88;66.66
46045;BME280;31781;54.094;13.428;2023-04-07T05:48:03;102272.59;;;3.91;66.79
46045;BME280;31781;54.094;13.428;2023-04-07T05:50:05;102270.63;;;3.93;66.96
46045;BME280;31781;54.094;13.428;2023-04-07T05:52:09;102267.66;;;3.97;66.67
46045;BME280;31781;54.094;13.428;2023-04-07T05:54:11;102260.44;;;3.97;66.21
46045;BME280;31781;54.094;13.428;2023-04-07T05:56:12;102268.16;;;4.02;66.68
46045;BME280;31781;54.094;13.428;2023-04-07T05:58:14;102262.50;;;4.05;66.17
46045;BME280;31781;54.094;13.428;2023-04-07T06:00:16;102261.53;;;4.06;67.11
46045;BME280;31781;54.094;13.428;2023-04-07T06:02:18;102275.44;;;4.11;66.33
46045;BME280;31781;54.094;13.428;2023-04-07T06:04:20;102280.59;;;4.14;66.26
46045;BME280;31781;54.094;13.428;2023-04-07T06:06:21;102260.59;;;4.16;66.43
46045;BME280;31781;54.094;13.428;2023-04-07T06:08:25;102268.31;;;4.21;66.29
46045;BME280;31781;54.094;13.428;2023-04-07T06:10:26;102264.47;;;4.23;66.30
46045;BME280;31781;54.094;13.428;2023-04-07T06:12:28;102264.97;;;4.28;65.99
46045;BME280;31781;54.094;13.428;2023-04-07T06:14:29;102266.53;;;4.31;66.41
46045;BME280;31781;54.094;13.428;2023-04-07T06:16:32;102264.41;;;4.34;66.48
46045;BME280;31781;54.094;13.428;2023-04-07T06:18:34;102264.88;;;4.39;65.88
46045;BME280;31781;54.094;13.428;2023-04-07T06:20:36;102260.09;;;4.43;65.30
46045;BME280;31781;54.094;13.428;2023-04-07T06:22:38;102258.84;;;4.47;65.31
46045;BME280;31781;54.094;13.428;2023-04-07T06:24:41;102263.97;;;4.50;65.97
46045;BME280;31781;54.094;13.428;2023-04-07T06:26:43;102254.63;;;4.54;65.61
46045;BME280;31781;54.094;13.428;2023-04-07T06:28:45;102266.00;;;4.58;65.34
46045;BME280;31781;54.094;13.428;2023-04-07T06:30:47;102263.88;;;4.61;65.27
46045;BME280;31781;54.094;13.428;2023-04-07T06:32:49;102268.84;;;4.66;65.84
46045;BME280;31781;54.094;13.428;2023-04-07T06:34:51;102264.91;;;4.70;65.88
46045;BME280;31781;54.094;13.428;2023-04-07T06:36:53;102261.97;;;4.73;65.36
46045;BME280;31781;54.094;13.428;2023-04-07T06:38:58;102269.78;;;4.76;65.79
46045;BME280;31781;54.094;13.428;2023-04-07T06:41:01;102271.22;;;4.80;65.89
46045;BME280;31781;54.094;13.428;2023-04-07T06:43:03;102267.28;;;4.84;65.57
46045;BME280;31781;54.094;13.428;2023-04-07T06:45:05;102267.97;;;4.86;66.11
46045;BME280;31781;54.094;13.428;2023-04-07T06:47:07;102277.50;;;4.90;65.37
46045;BME280;31781;54.094;13.428;2023-04-07T06:49:09;102272.69;;;4.94;65.71
46045;BME280;31781;54.094;13.428;2023-04-07T06:51:11;102272.56;;;4.95;65.52
46045;BME280;31781;54.094;13.428;2023-04-07T06:53:13;102269.59;;;4.98;65.39
46045;BME280;31781;54.094;13.428;2023-04-07T06:55:15;102280.22;;;5.00;65.60
46045;BME280;31781;54.094;13.428;2023-04-07T06:57:18;102278.97;;;5.04;65.24
46045;BME280;31781;54.094;13.428;2023-04-07T06:59:20;102270.59;;;5.07;66.06
46045;BME280;31781;54.094;13.428;2023-04-07T07:01:21;102271.34;;;5.09;66.09
46045;BME280;31781;54.094;13.428;2023-04-07T07:03:24;102266.38;;;5.14;65.32
46045;BME280;31781;54.094;13.428;2023-04-07T07:05:26;102267.22;;;5.14;66.07
46045;BME280;31781;54.094;13.428;2023-04-07T07:07:28;102267.81;;;5.18;65.75
46045;BME280;31781;54.094;13.428;2023-04-07T07:09:30;102268.66;;;5.18;65.93
46045;BME280;31781;54.094;13.428;2023-04-07T07:11:32;102275.66;;;5.21;66.42
46045;BME280;31781;54.094;13.428;2023-04-07T07:13:36;102270.94;;;5.23;66.20
46045;BME280;31781;54.094;13.428;2023-04-07T07:15:38;102278.06;;;5.24;65.99
46045;BME280;31781;54.094;13.428;2023-04-07T07:17:40;102275.22;;;5.25;66.26
46045;BME280;31781;54.094;13.428;2023-04-07T07:19:41;102275.09;;;5.27;66.49
46045;BME280;31781;54.094;13.428;2023-04-07T07:21:43;102276.66;;;5.29;66.25
46045;BME280;31781;54.094;13.428;2023-04-07T07:23:45;102281.91;;;5.31;66.58
46045;BME280;31781;54.094;13.428;2023-04-07T07:25:47;102281.75;;;5.32;66.61
46045;BME280;31781;54.094;13.428;2023-04-07T07:27:48;102279.78;;;5.34;66.37
46045;BME280;31781;54.094;13.428;2023-04-07T07:29:51;102281.50;;;5.35;65.96
46045;BME280;31781;54.094;13.428;2023-04-07T07:31:53;102275.97;;;5.37;66.54
46045;BME280;31781;54.094;13.428;2023-04-07T07:33:56;102274.97;;;5.38;66.55
46045;BME280;31781;54.094;13.428;2023-04-07T07:35:58;102278.38;;;5.40;66.91
46045;BME280;31781;54.094;13.428;2023-04-07T07:38:00;102286.47;;;5.40;67.40
46045;BME280;31781;54.094;13.428;2023-04-07T07:40:02;102281.94;;;5.40;66.97
46045;BME280;31781;54.094;13.428;2023-04-07T07:42:04;102287.22;;;5.42;67.20
46045;BME280;31781;54.094;13.428;2023-04-07T07:44:06;102287.91;;;5.44;66.40
46045;BME280;31781;54.094;13.428;2023-04-07T07:46:09;102295.03;;;5.45;66.76
46045;BME280;31781;54.094;13.428;2023-04-07T07:48:11;102291.34;;;5.46;67.77
46045;BME280;31781;54.094;13.428;2023-04-07T07:50:12;102295.72;;;5.47;67.82
46045;BME280;31781;54.094;13.428;2023-04-07T07:52:14;102295.59;;;5.49;67.82
46045;BME280;31781;54.094;13.428;2023-04-07T07:54:16;102292.78;;;5.50;67.44
46045;BME280;31781;54.094;13.428;2023-04-07T07:56:18;102299.00;;;5.51;67.37
46045;BME280;31781;54.094;13.428;2023-04-07T07:58:19;102297.16;;;5.51;67.59
46045;BME280;31781;54.094;13.428;2023-04-07T08:00:21;102305.13;;;5.53;67.68
46045;BME280;31781;54.094;13.428;2023-04-07T08:02:24;102302.31;;;5.54;66.79
46045;BME280;31781;54.094;13.428;2023-04-07T08:04:26;102309.38;;;5.55;67.14
46045;BME280;31781;54.094;13.428;2023-04-07T08:06:28;102305.72;;;5.56;66.94
46045;BME280;31781;54.094;13.428;2023-04-07T08:08:30;102300.31;;;5.56;66.82
46045;BME280;31781;54.094;13.428;2023-04-07T08:10:32;102301.00;;;5.58;66.47
46045;BME280;31781;54.094;13.428;2023-04-07T08:12:34;102300.03;;;5.59;66.82
46045;BME280;31781;54.094;13.428;2023-04-07T08:14:36;102299.03;;;5.60;66.68
46045;BME280;31781;54.094;13.428;2023-04-07T08:16:37;102302.59;;;5.61;66.78
46045;BME280;31781;54.094;13.428;2023-04-07T08:18:41;102297.03;;;5.62;67.62
46045;BME280;31781;54.094;13.428;2023-04-07T08:20:42;102305.13;;;5.62;67.08
46045;BME280;31781;54.094;13.428;2023-04-07T08:22:44;102302.31;;;5.64;66.79
46045;BME280;31781;54.094;13.428;2023-04-07T08:24:46;102299.50;;;5.65;67.04
46045;BME280;31781;54.094;13.428;2023-04-07T08:26:47;102304.72;;;5.67;67.27
46045;BME280;31781;54.094;13.428;2023-04-07T08:28:49;102300.19;;;5.67;67.69
46045;BME280;31781;54.094;13.428;2023-04-07T08:30:51;102309.84;;;5.70;67.74
46045;BME280;31781;54.094;13.428;2023-04-07T08:32:53;102307.03;;;5.71;67.95
46045;BME280;31781;54.094;13.428;2023-04-07T08:34:56;102313.13;;;5.73;67.21
46045;BME280;31781;54.094;13.428;2023-04-07T08:36:58;102304.03;;;5.74;67.44
46045;BME280;31781;54.094;13.428;2023-04-07T08:39:00;102313.84;;;5.75;67.82
46045;BME280;31781;54.094;13.428;2023-04-07T08:41:03;102306.44;;;5.77;67.61
46045;BME280;31781;54.094;13.428;2023-04-07T08:43:08;102306.44;;;5.77;67.99
46045;BME280;31781;54.094;13.428;2023-04-07T08:45:12;102313.44;;;5.80;67.93
46045;BME280;31781;54.094;13.428;2023-04-07T08:47:15;102301.63;;;5.81;68.04
46045;BME280;31781;54.094;13.428;2023-04-07T08:49:18;102302.34;;;5.83;67.97
46045;BME280;31781;54.094;13.428;2023-04-07T08:51:26;102304.03;;;5.84;67.72
46045;BME280;31781;54.094;13.428;2023-04-07T08:53:35;102311.06;;;5.86;66.60
46045;BME280;31781;54.094;13.428;2023-04-07T08:55:39;102316.47;;;5.86;68.08
46045;BME280;31781;54.094;13.428;2023-04-07T08:57:42;102306.50;;;5.87;68.02
46045;BME280;31781;54.094;13.428;2023-04-07T08:59:44;102310.78;;;5.90;67.66
46045;BME280;31781;54.094;13.428;2023-04-07T09:01:47;102310.66;;;5.91;67.65
46045;BME280;31781;54.094;13.428;2023-04-07T09:03:49;102310.47;;;5.93;68.75
46045;BME280;31781;54.094;13.428;2023-04-07T09:05:52;102310.34;;;5.94;67.96
46045;BME280;31781;54.094;13.428;2023-04-07T09:07:55;102306.81;;;5.94;68.57
46045;BME280;31781;54.094;13.428;2023-04-07T09:09:57;102310.19;;;5.96;68.25
46045;BME280;31781;54.094;13.428;2023-04-07T09:11:59;102310.06;;;5.97;68.05
46045;BME280;31781;54.094;13.428;2023-04-07T09:14:01;102315.31;;;5.99;67.85
46045;BME280;31781;54.094;13.428;2023-04-07T09:16:03;102308.06;;;5.99;68.48
46045;BME280;31781;54.094;13.428;2023-04-07T09:18:05;102312.47;;;6.00;68.75
46045;BME280;31781;54.094;13.428;2023-04-07T09:20:08;102308.78;;;6.01;69.01
46045;BME280;31781;54.094;13.428;2023-04-07T09:22:10;102310.63;;;6.01;69.01
46045;BME280;31781;54.094;13.428;2023-04-07T09:24:21;102309.50;;;6.03;67.55
46045;BME280;31781;54.094;13.428;2023-04-07T09:26:25;102317.75;;;6.02;69.37
46045;BME280;31781;54.094;13.428;2023-04-07T09:28:37;102317.59;;;6.03;68.41
46045;BME280;31781;54.094;13.428;2023-04-07T09:30:51;102313.91;;;6.04;67.14
46045;BME280;31781;54.094;13.428;2023-04-07T09:32:53;102313.06;;;6.04;69.50
46045;BME280;31781;54.094;13.428;2023-04-07T09:34:58;102314.03;;;6.03;68.98
46045;BME280;31781;54.094;13.428;2023-04-07T09:37:00;102315.75;;;6.04;69.33
46045;BME280;31781;54.094;13.428;2023-04-07T09:39:07;102316.63;;;6.04;69.10
46045;BME280;31781;54.094;13.428;2023-04-07T09:41:14;102304.94;;;6.04;69.29
46045;BME280;31781;54.094;13.428;2023-04-07T09:43:17;102304.94;;;6.04;69.21
46045;BME280;31781;54.094;13.428;2023-04-07T09:45:23;102308.50;;;6.04;68.84
46045;BME280;31781;54.094;13.428;2023-04-07T09:47:35;102309.38;;;6.05;69.00
46045;BME280;31781;54.094;13.428;2023-04-07T09:49:48;102306.66;;;6.05;67.98
46045;BME280;31781;54.094;13.428;2023-04-07T09:51:55;102304.09;;;6.03;69.03
46045;BME280;31781;54.094;13.428;2023-04-07T09:53:56;102309.50;;;6.03;68.98
46045;BME280;31781;54.094;13.428;2023-04-07T09:55:58;102310.63;;;6.01;69.73
46045;BME280;31781;54.094;13.428;2023-04-07T09:58:03;102312.47;;;6.00;68.83
46045;BME280;31781;54.094;13.428;2023-04-07T10:00:06;102312.47;;;6.00;69.08
46045;BME280;31781;54.094;13.428;2023-04-07T10:02:09;102317.03;;;6.00;69.57
46045;BME280;31781;54.094;13.428;2023-04-07T10:04:11;102314.50;;;5.98;69.64
46045;BME280;31781;54.094;13.428;2023-04-07T10:06:13;102318.00;;;5.99;69.60
46045;BME280;31781;54.094;13.428;2023-04-07T10:08:15;102319.88;;;5.98;69.59
46045;BME280;31781;54.094;13.428;2023-04-07T10:10:17;102319.88;;;5.98;70.06
46045;BME280;31781;54.094;13.428;2023-04-07T10:12:19;102324.28;;;5.99;69.83
46045;BME280;31781;54.094;13.428;2023-04-07T10:14:25;102319.88;;;5.98;68.54
46045;BME280;31781;54.094;13.428;2023-04-07T10:16:28;102324.44;;;5.98;69.61
46045;BME280;31781;54.094;13.428;2023-04-07T10:18:31;102335.25;;;5.98;69.57
46045;BME280;31781;54.094;13.428;2023-04-07T10:20:34;102327.25;;;5.96;69.92
46045;BME280;31781;54.094;13.428;2023-04-07T10:22:40;102331.81;;;5.96;69.81
46045;BME280;31781;54.094;13.428;2023-04-07T10:24:52;102324.56;;;5.96;67.99
46045;BME280;31781;54.094;13.428;2023-04-07T10:26:58;102330.13;;;5.95;69.94
46045;BME280;31781;54.094;13.428;2023-04-07T10:29:04;102332.81;;;5.95;69.74
46045;BME280;31781;54.094;13.428;2023-04-07T10:31:09;102328.41;;;5.94;69.31
46045;BME280;31781;54.094;13.428;2023-04-07T10:33:11;102329.41;;;5.93;70.18
46045;BME280;31781;54.094;13.428;2023-04-07T10:35:13;102337.50;;;5.93;70.09
46045;BME280;31781;54.094;13.428;2023-04-07T10:37:16;102331.25;;;5.92;69.68
46045;BME280;31781;54.094;13.428;2023-04-07T10:39:21;102329.56;;;5.91;70.71
46045;BME280;31781;54.094;13.428;2023-04-07T10:41:33;102334.81;;;5.93;68.65
46045;BME280;31781;54.094;13.428;2023-04-07T10:43:39;102330.38;;;5.92;70.14